Time;durP1;ratioP1;P1;durP2;ratioP2;P2;SDS_P1;SDS_P2;PMS_P1;PMS_P2;Temp;Humidity;BMP_temperature;BMP_pressure;BME280_temperature;BME280_humidity;BME280_pressure;Samples;Min_cycle;Max_cycle;Signal;HPM_P1;HPM_P2
2021/05/08 00:03:03;;;;;;;7.53;3.52;;;;;;;13.34;76.79;99771.59;1797486;80;21190;-79
2021/05/08 00:06:10;;;;;;;8.50;3.37;;;;;;;13.37;76.65;99762.95;1797158;80;21366;-80
2021/05/08 00:09:16;;;;;;;7.03;3.42;;;;;;;13.39;76.44;99759.45;1797790;80;21845;-80
2021/05/08 00:12:25;;;;;;;7.83;3.45;;;;;;;13.42;76.34;99757.68;1797698;80;21169;-79
2021/05/08 00:15:30;;;;;;;14.45;3.40;;;;;;;13.42;76.19;99745.31;1797918;80;21156;-79
2021/05/08 00:18:34;;;;;;;9.23;3.87;;;;;;;13.41;76.38;99739.52;1797882;80;21339;-79
2021/05/08 00:21:35;;;;;;;8.13;3.77;;;;;;;13.43;76.72;99733.27;1797930;80;21177;-80
2021/05/08 00:24:40;;;;;;;8.83;3.33;;;;;;;13.41;76.85;99728.52;1797868;80;21819;-80
2021/05/08 00:27:47;;;;;;;8.23;3.52;;;;;;;13.40;77.01;99739.16;1796392;80;21370;-79
2021/05/08 00:30:54;;;;;;;5.72;2.90;;;;;;;13.37;77.11;99745.62;1796469;80;21327;-79
2021/05/08 00:34:00;;;;;;;8.38;2.90;;;;;;;13.33;77.23;99741.08;1797901;80;21738;-80
2021/05/08 00:37:05;;;;;;;7.55;3.37;;;;;;;13.33;77.55;99734.73;1796979;80;21302;-80
2021/05/08 00:40:11;;;;;;;8.60;3.30;;;;;;;13.32;77.53;99749.00;1797849;80;21334;-79
2021/05/08 00:43:17;;;;;;;10.70;3.92;;;;;;;13.34;77.53;99759.77;1796274;79;21177;-80
2021/05/08 00:46:22;;;;;;;9.18;4.08;;;;;;;13.38;77.25;99772.88;1797795;80;21307;-79
2021/05/08 00:49:28;;;;;;;9.40;3.83;;;;;;;13.45;77.35;99787.46;1797799;80;21273;-79
2021/05/08 00:52:33;;;;;;;11.73;3.70;;;;;;;13.47;77.13;99784.53;1797918;80;21343;-80
2021/05/08 00:55:39;;;;;;;8.90;4.25;;;;;;;13.47;77.23;99778.50;1797861;80;21292;-79
2021/05/08 00:58:44;;;;;;;8.23;3.92;;;;;;;13.47;77.41;99768.89;1796385;80;21347;-79
2021/05/08 01:01:51;;;;;;;8.08;3.90;;;;;;;13.50;77.41;99780.84;1798199;80;21181;-79
2021/05/08 01:04:57;;;;;;;13.10;3.90;;;;;;;13.49;77.36;99777.75;1796446;80;21327;-79
2021/05/08 01:08:05;;;;;;;9.75;4.12;;;;;;;13.49;77.66;99780.50;1796341;80;21306;-79
2021/05/08 01:11:10;;;;;;;12.10;4.20;;;;;;;13.50;77.79;99778.09;1797986;80;21354;-80
2021/05/08 01:14:16;;;;;;;8.98;3.80;;;;;;;13.48;78.20;99766.45;1798204;80;21161;-79
2021/05/08 01:17:21;;;;;;;15.53;4.40;;;;;;;13.41;78.42;99747.75;1797300;80;21879;-80
2021/05/08 01:20:27;;;;;;;8.93;3.70;;;;;;;13.29;78.58;99743.38;1796403;80;21279;-80
2021/05/08 01:23:33;;;;;;;8.30;4.17;;;;;;;13.23;78.83;99736.52;1796286;79;21490;-79
2021/05/08 01:26:38;;;;;;;5.37;3.55;;;;;;;13.16;78.88;99739.19;1797804;80;21180;-79
2021/05/08 01:29:46;;;;;;;5.70;3.22;;;;;;;13.12;78.77;99735.69;1796547;79;21708;-79
2021/05/08 01:32:51;;;;;;;8.55;3.60;;;;;;;13.09;78.68;99725.98;1797902;80;21183;-80
2021/05/08 01:36:00;;;;;;;8.90;3.70;;;;;;;13.03;78.71;99718.55;1798476;79;21334;-80
2021/05/08 01:39:11;;;;;;;5.67;3.45;;;;;;;12.97;79.29;99720.23;1805351;79;21184;-79
2021/05/08 01:42:17;;;;;;;7.42;3.33;;;;;;;12.89;80.28;99713.58;1806642;79;21172;-80
2021/05/08 01:45:26;;;;;;;6.58;3.45;;;;;;;12.79;81.53;99685.11;1806719;79;21893;-80
2021/05/08 01:48:34;;;;;;;12.05;4.03;;;;;;;12.68;82.93;99676.12;1805603;79;21306;-80
2021/05/08 01:51:40;;;;;;;8.10;3.60;;;;;;;12.57;84.25;99673.97;1804869;79;21326;-80
2021/05/08 01:54:46;;;;;;;5.47;3.50;;;;;;;12.46;85.12;99667.68;1805948;79;21176;-79
2021/05/08 01:58:01;;;;;;;5.55;3.60;;;;;;;12.39;86.03;99657.22;1806194;79;21890;-80
2021/05/08 02:01:08;;;;;;;12.20;4.20;;;;;;;12.32;86.73;99648.94;1806722;79;21287;-80
2021/05/08 02:04:14;;;;;;;6.28;3.62;;;;;;;12.25;87.69;99631.62;1806933;79;21342;-80
2021/05/08 02:07:21;;;;;;;7.35;3.80;;;;;;;12.17;88.48;99623.57;1806622;79;21262;-80
2021/05/08 02:10:27;;;;;;;9.70;4.12;;;;;;;12.11;88.95;99627.97;1805946;79;21255;-79
2021/05/08 02:13:37;;;;;;;8.45;3.20;;;;;;;12.09;89.28;99631.45;1806704;79;21338;-80
2021/05/08 02:16:43;;;;;;;9.78;3.87;;;;;;;12.11;89.52;99624.39;1805168;79;21248;-80
2021/05/08 02:19:49;;;;;;;9.48;3.95;;;;;;;12.08;89.87;99622.88;1806676;79;21299;-80
2021/05/08 02:22:54;;;;;;;6.72;3.87;;;;;;;12.07;90.19;99625.31;1806671;79;21279;-80
2021/05/08 02:25:57;;;;;;;7.92;4.17;;;;;;;12.06;90.43;99622.78;1805386;79;21364;-80
2021/05/08 02:29:02;;;;;;;11.00;3.90;;;;;;;12.05;90.65;99615.61;1805579;79;21870;-80
2021/05/08 02:32:08;;;;;;;7.62;4.00;;;;;;;12.02;90.91;99625.92;1806631;79;21287;-80
2021/05/08 02:35:15;;;;;;;10.48;3.90;;;;;;;12.03;91.18;99623.49;1806581;79;21175;-80
2021/05/08 02:38:20;;;;;;;7.72;3.70;;;;;;;12.02;91.35;99616.85;1798757;79;21326;-79
2021/05/08 02:41:26;;;;;;;8.95;4.12;;;;;;;12.02;91.43;99617.70;1797513;80;21851;-80
2021/05/08 02:44:33;;;;;;;10.18;3.70;;;;;;;12.03;91.38;99616.64;1796410;80;21814;-80
2021/05/08 02:47:40;;;;;;;7.05;3.83;;;;;;;12.03;91.33;99615.27;1796381;80;21292;-80
2021/05/08 02:50:47;;;;;;;9.90;3.47;;;;;;;12.07;91.34;99634.06;1797947;80;21156;-80
2021/05/08 02:53:53;;;;;;;11.90;2.75;;;;;;;12.08;91.27;99641.23;1797871;80;21279;-80
2021/05/08 02:56:58;;;;;;;7.83;3.05;;;;;;;12.09;91.12;99636.06;1796382;80;21885;-80
2021/05/08 03:00:05;;;;;;;9.23;3.65;;;;;;;12.09;91.05;99620.49;1796175;79;21168;-80
2021/05/08 03:03:11;;;;;;;16.73;4.00;;;;;;;12.09;91.12;99604.05;1797765;80;21291;-80
2021/05/08 03:06:16;;;;;;;6.50;3.02;;;;;;;12.09;91.29;99610.02;1797692;80;21766;-80
2021/05/08 03:09:23;;;;;;;8.10;3.15;;;;;;;12.12;91.45;99611.00;1796611;80;21220;-80
2021/05/08 03:12:30;;;;;;;6.85;3.55;;;;;;;12.11;91.61;99601.93;1796203;80;21838;-79
2021/05/08 03:15:35;;;;;;;6.00;3.08;;;;;;;12.09;91.96;99594.95;1796158;80;21576;-80
2021/05/08 03:18:41;;;;;;;5.30;2.92;;;;;;;12.08;92.34;99604.23;1797290;80;21349;-80
2021/05/08 03:21:47;;;;;;;11.63;3.58;;;;;;;12.10;92.54;99596.13;1797797;80;21283;-80
2021/05/08 03:24:54;;;;;;;11.85;3.87;;;;;;;12.14;92.60;99589.70;1797845;80;21902;-80
2021/05/08 03:28:01;;;;;;;6.40;3.30;;;;;;;12.15;92.51;99586.77;1798128;80;21172;-80
2021/05/08 03:31:06;;;;;;;8.33;3.02;;;;;;;12.20;92.33;99591.64;1797723;80;21346;-79
2021/05/08 03:34:12;;;;;;;6.80;2.85;;;;;;;12.24;92.09;99591.56;1796474;80;21334;-80
2021/05/08 03:37:18;;;;;;;16.97;3.98;;;;;;;12.28;91.87;99583.25;1796715;80;21378;-79
2021/05/08 03:40:24;;;;;;;11.12;3.62;;;;;;;12.29;91.91;99578.08;1796510;80;21663;-80
2021/05/08 03:43:30;;;;;;;8.63;3.05;;;;;;;12.29;92.24;99568.48;1797791;80;21886;-80
2021/05/08 03:46:37;;;;;;;7.78;3.55;;;;;;;12.30;92.52;99572.06;1797735;80;21860;-80
2021/05/08 03:49:44;;;;;;;5.40;3.05;;;;;;;12.31;92.49;99582.81;1797122;80;21311;-80
2021/05/08 03:52:49;;;;;;;10.13;3.52;;;;;;;12.31;92.48;99595.16;1797735;80;21287;-80
2021/05/08 03:55:58;;;;;;;10.35;3.42;;;;;;;12.33;92.58;99599.93;1797695;80;22542;-80
2021/05/08 03:59:05;;;;;;;11.05;4.10;;;;;;;12.36;92.79;99599.50;1797815;80;21287;-80
2021/05/08 04:02:11;;;;;;;9.28;4.30;;;;;;;12.37;93.18;99606.67;1797796;80;21282;-79
2021/05/08 04:05:17;;;;;;;8.05;3.20;;;;;;;12.39;93.65;99596.89;1797813;80;21712;-79
2021/05/08 04:08:22;;;;;;;10.90;4.25;;;;;;;12.38;93.98;99590.56;1797815;80;21279;-80
2021/05/08 04:11:27;;;;;;;13.13;4.42;;;;;;;12.39;94.24;99581.27;1797653;80;21684;-80
2021/05/08 04:14:33;;;;;;;12.50;3.65;;;;;;;12.43;94.46;99589.94;1797738;80;21152;-80
2021/05/08 04:17:38;;;;;;;11.73;4.67;;;;;;;12.47;94.67;99585.21;1797909;80;21295;-80
2021/05/08 04:20:44;;;;;;;8.48;3.90;;;;;;;12.52;94.84;99577.20;1796512;80;21303;-80
2021/05/08 04:23:50;;;;;;;8.18;4.17;;;;;;;12.54;95.03;99570.97;1797735;80;21260;-80
2021/05/08 04:26:56;;;;;;;9.63;4.47;;;;;;;12.56;95.05;99575.40;1796953;80;21319;-80
2021/05/08 04:30:01;;;;;;;6.25;3.50;;;;;;;12.58;95.22;99570.05;1797119;80;21322;-79
2021/05/08 04:33:05;;;;;;;11.05;4.87;;;;;;;12.56;94.93;99568.55;1797777;80;21718;-79
2021/05/08 04:36:12;;;;;;;7.67;4.42;;;;;;;12.51;95.21;99566.42;1797669;80;21310;-80
2021/05/08 04:39:18;;;;;;;7.97;4.30;;;;;;;12.47;95.62;99583.84;1800097;79;21302;-80
2021/05/08 04:42:24;;;;;;;8.23;3.83;;;;;;;12.42;95.90;99589.09;1805959;79;21960;-80
2021/05/08 04:45:29;;;;;;;9.45;4.03;;;;;;;12.38;96.04;99579.59;1806752;79;21690;-80
2021/05/08 04:48:35;;;;;;;8.93;4.83;;;;;;;12.37;96.28;99571.02;1806766;79;21273;-80
2021/05/08 04:51:40;;;;;;;12.45;5.25;;;;;;;12.37;96.47;99565.53;1805150;79;21334;-80
2021/05/08 04:54:47;;;;;;;10.48;4.20;;;;;;;12.39;96.37;99564.81;1806443;79;21877;-79
2021/05/08 04:57:53;;;;;;;9.28;4.45;;;;;;;12.38;96.55;99564.51;1805731;79;21295;-80
2021/05/08 05:00:58;;;;;;;17.70;5.08;;;;;;;12.36;96.75;99558.89;1805142;79;21290;-80
2021/05/08 05:04:05;;;;;;;9.33;4.55;;;;;;;12.31;97.03;99562.78;1805029;79;21171;-80
2021/05/08 05:07:11;;;;;;;10.13;5.17;;;;;;;12.24;97.23;99572.37;1806699;79;21287;-80
2021/05/08 05:10:19;;;;;;;11.12;5.28;;;;;;;12.20;97.64;99566.97;1806350;79;21180;-79
2021/05/08 05:13:25;;;;;;;8.20;4.90;;;;;;;12.17;98.03;99561.35;1805547;79;21199;-80
2021/05/08 05:16:30;;;;;;;11.73;5.30;;;;;;;12.17;98.31;99546.80;1806720;79;21219;-79
2021/05/08 05:19:36;;;;;;;13.20;5.28;;;;;;;12.14;98.53;99536.23;1806681;79;21323;-80
2021/05/08 05:22:42;;;;;;;8.35;4.20;;;;;;;12.11;98.90;99543.52;1806693;79;21162;-80
2021/05/08 05:25:49;;;;;;;11.28;5.33;;;;;;;12.08;99.20;99534.33;1805667;79;21299;-80
2021/05/08 05:28:55;;;;;;;9.73;5.30;;;;;;;12.09;99.59;99537.38;1805564;79;21937;-80
2021/05/08 05:32:04;;;;;;;15.58;6.33;;;;;;;12.10;99.76;99551.43;1805211;79;21208;-80
2021/05/08 05:35:10;;;;;;;13.20;6.17;;;;;;;12.13;100.00;99539.51;1806618;79;21172;-80
2021/05/08 05:38:16;;;;;;;15.58;6.70;;;;;;;12.19;100.00;99533.23;1806654;79;21275;-80
2021/05/08 05:41:21;;;;;;;10.75;5.78;;;;;;;12.26;100.00;99534.08;1805632;79;21358;-80
2021/05/08 05:44:21;;;;;;;11.78;5.40;;;;;;;12.34;100.00;99530.31;1805247;79;22009;-80
2021/05/08 05:47:30;;;;;;;15.28;6.53;;;;;;;12.40;100.00;99532.22;1806747;79;22523;-80
2021/05/08 05:50:34;;;;;;;10.48;5.03;;;;;;;12.41;100.00;99540.77;1804940;79;21188;-80
2021/05/08 05:53:40;;;;;;;10.38;4.75;;;;;;;12.40;99.69;99539.08;1807039;79;21291;-80
2021/05/08 05:56:46;;;;;;;11.68;4.85;;;;;;;12.41;99.52;99538.02;1806748;79;21219;-80
2021/05/08 05:59:52;;;;;;;11.48;4.90;;;;;;;12.42;99.48;99534.25;1805112;79;21299;-80
2021/05/08 06:02:58;;;;;;;9.95;4.85;;;;;;;12.45;99.45;99531.07;1806815;79;21838;-80
2021/05/08 06:06:03;;;;;;;9.95;4.42;;;;;;;12.46;99.36;99521.78;1806765;79;21477;-80
2021/05/08 06:09:10;;;;;;;14.78;5.28;;;;;;;12.47;99.19;99527.61;1806850;79;21255;-80
2021/05/08 06:12:16;;;;;;;17.27;5.83;;;;;;;12.49;99.17;99510.94;1805770;79;21916;-80
2021/05/08 06:15:22;;;;;;;15.23;5.92;;;;;;;12.50;99.15;99513.99;1806715;79;21742;-80
2021/05/08 06:18:29;;;;;;;11.78;5.30;;;;;;;12.56;99.23;99504.92;1806445;79;21865;-80
2021/05/08 06:21:38;;;;;;;15.45;5.70;;;;;;;12.64;99.43;99504.73;1806406;79;21275;-80
2021/05/08 06:24:44;;;;;;;9.43;5.42;;;;;;;12.77;99.67;99486.91;1806715;79;21294;-80
2021/05/08 06:27:50;;;;;;;14.70;5.92;;;;;;;12.89;99.68;99494.50;1806704;79;21176;-80
2021/05/08 06:30:57;;;;;;;9.43;5.05;;;;;;;12.96;99.23;99485.22;1806929;79;21856;-80
2021/05/08 06:34:03;;;;;;;16.23;5.90;;;;;;;13.03;98.73;99483.33;1806430;79;21338;-80
2021/05/08 06:37:10;;;;;;;11.83;5.30;;;;;;;13.10;98.40;99497.04;1805154;79;21846;-80
2021/05/08 06:40:16;;;;;;;9.90;5.25;;;;;;;13.17;98.19;99490.16;1805053;79;21326;-80
2021/05/08 06:43:23;;;;;;;13.03;5.85;;;;;;;13.29;98.20;99483.00;1768255;81;21321;-80
2021/05/08 06:46:29;;;;;;;8.83;5.05;;;;;;;13.44;98.19;99489.09;1765146;81;21173;-80
2021/05/08 06:49:35;;;;;;;12.00;4.83;;;;;;;13.58;97.74;99493.19;1767923;81;21331;-79
2021/05/08 06:52:41;;;;;;;10.90;4.95;;;;;;;13.72;96.59;99470.94;1768196;81;21331;-79
2021/05/08 06:55:48;;;;;;;8.15;4.65;;;;;;;13.93;95.90;99484.93;1768953;81;21303;-79
2021/05/08 06:58:54;;;;;;;15.13;4.70;;;;;;;14.14;94.14;99478.80;1767630;81;21216;-79
2021/05/08 07:02:00;;;;;;;9.13;4.53;;;;;;;14.34;93.46;99485.02;1769091;81;21165;-79
2021/05/08 07:05:05;;;;;;;10.23;4.78;;;;;;;14.51;92.55;99468.33;1769492;81;21287;-79
2021/05/08 07:08:13;;;;;;;12.50;4.40;;;;;;;14.57;90.76;99464.68;1769243;81;21623;-80
2021/05/08 07:11:18;;;;;;;12.60;4.33;;;;;;;14.60;89.69;99474.41;1769704;81;21548;-79
2021/05/08 07:14:24;;;;;;;7.97;3.52;;;;;;;14.71;89.81;99470.09;1768088;81;21323;-80
2021/05/08 07:17:29;;;;;;;7.20;3.70;;;;;;;14.87;89.50;99483.83;1769385;81;21236;-80
2021/05/08 07:20:35;;;;;;;9.00;3.70;;;;;;;15.01;89.02;99470.28;1769783;81;21639;-79
2021/05/08 07:23:42;;;;;;;11.10;4.37;;;;;;;15.09;87.91;99454.83;1767906;81;21232;-80
2021/05/08 07:26:47;;;;;;;12.23;4.92;;;;;;;15.18;87.22;99465.03;1767931;81;21734;-80
2021/05/08 07:29:53;;;;;;;10.38;4.15;;;;;;;15.22;85.80;99452.48;1768935;81;21806;-79
2021/05/08 07:32:58;;;;;;;13.85;4.20;;;;;;;15.23;85.39;99454.16;1768366;81;21228;-79
2021/05/08 07:36:03;;;;;;;8.70;3.67;;;;;;;15.22;84.38;99452.48;1768849;81;21636;-80
2021/05/08 07:39:13;;;;;;;12.45;3.85;;;;;;;15.21;84.03;99446.68;1767597;81;21295;-79
2021/05/08 07:42:19;;;;;;;9.00;3.98;;;;;;;15.27;83.41;99445.76;1774472;79;21839;-79
2021/05/08 07:45:26;;;;;;;7.58;3.65;;;;;;;15.41;82.82;99444.55;1806027;79;21184;-79
2021/05/08 07:48:31;;;;;;;9.98;3.42;;;;;;;15.65;83.59;99435.92;1805109;79;21730;-80
2021/05/08 07:51:36;;;;;;;8.40;3.60;;;;;;;15.94;82.92;99441.17;1805035;79;21334;-80
2021/05/08 07:54:42;;;;;;;9.20;3.70;;;;;;;16.22;81.52;99443.33;1806629;79;21227;-79
2021/05/08 07:57:48;;;;;;;16.48;4.22;;;;;;;16.37;79.60;99430.48;1806498;79;21798;-79
2021/05/08 08:00:55;;;;;;;9.68;3.20;;;;;;;16.43;78.45;99429.56;1805867;79;21291;-79
2021/05/08 08:04:02;;;;;;;7.05;3.37;;;;;;;16.41;77.64;99424.80;1805513;79;21172;-79
2021/05/08 08:07:07;;;;;;;6.95;3.27;;;;;;;16.36;77.34;99416.39;1806583;79;21286;-79
2021/05/08 08:10:16;;;;;;;10.65;3.80;;;;;;;16.32;77.46;99423.45;1805401;79;21287;-79
2021/05/08 08:13:22;;;;;;;10.23;3.90;;;;;;;16.41;78.61;99421.20;1806234;79;21362;-79
2021/05/08 08:16:30;;;;;;;11.45;3.40;;;;;;;16.51;77.41;99419.54;1805569;79;21334;-79
2021/05/08 08:19:35;;;;;;;12.35;3.75;;;;;;;16.58;76.80;99417.53;1806663;79;21730;-79
2021/05/08 08:22:41;;;;;;;7.60;3.77;;;;;;;16.76;77.50;99415.80;1806688;79;21478;-80
2021/05/08 08:25:49;;;;;;;10.28;3.62;;;;;;;17.14;78.21;99407.59;1806770;79;21223;-80
2021/05/08 08:28:55;;;;;;;6.75;3.83;;;;;;;17.52;77.54;99411.20;1806770;79;21394;-80
2021/05/08 08:32:02;;;;;;;7.62;3.62;;;;;;;17.82;74.38;99415.17;1806188;79;21311;-80
2021/05/08 08:35:08;;;;;;;6.67;3.52;;;;;;;18.00;74.06;99418.31;1806663;79;21172;-80
2021/05/08 08:38:14;;;;;;;7.92;3.10;;;;;;;18.08;72.54;99433.98;1806602;79;21338;-79
2021/05/08 08:41:20;;;;;;;13.40;3.83;;;;;;;18.09;70.81;99424.58;1806691;79;21350;-80
2021/05/08 08:44:24;;;;;;;8.30;4.03;;;;;;;18.10;70.11;99423.48;1805594;79;21350;-80
2021/05/08 08:47:30;;;;;;;6.87;3.15;;;;;;;18.07;69.97;99424.55;1805172;79;21244;-79
2021/05/08 08:50:38;;;;;;;9.03;3.37;;;;;;;18.07;70.58;99424.55;1806599;79;21213;-80
2021/05/08 08:53:44;;;;;;;12.28;3.95;;;;;;;18.08;69.88;99442.83;1806237;79;21323;-80
2021/05/08 08:56:51;;;;;;;8.20;3.45;;;;;;;18.10;69.83;99442.02;1806588;79;21224;-79
2021/05/08 08:59:56;;;;;;;15.43;4.05;;;;;;;18.12;68.87;99455.09;1807441;79;21200;-79
2021/05/08 09:03:06;;;;;;;8.73;3.80;;;;;;;18.07;68.29;99450.84;1805386;79;21880;-80
2021/05/08 09:06:09;;;;;;;12.90;6.60;;;;;;;17.98;68.69;99470.30;1808500;79;21798;-80
2021/05/08 09:09:15;;;;;;;17.87;7.33;;;;;;;17.92;69.65;99471.25;1807690;79;21807;-80
2021/05/08 09:12:26;;;;;;;13.05;5.30;;;;;;;17.78;70.16;99492.27;1807445;79;21171;-79
2021/05/08 09:15:40;;;;;;;10.70;4.25;;;;;;;17.71;71.65;99503.14;1807773;79;21604;-80
2021/05/08 09:18:46;;;;;;;12.78;4.97;;;;;;;17.70;73.14;99505.62;1806109;79;21353;-80
2021/05/08 09:21:52;;;;;;;13.05;4.42;;;;;;;17.65;73.82;99498.05;1782749;80;21203;-80
2021/05/08 09:25:19;;;;;;;8.15;4.20;;;;;;;17.65;74.51;99509.66;1782367;80;21361;-80
2021/05/08 09:28:26;;;;;;;11.22;4.75;;;;;;;17.63;75.08;99505.18;1785517;80;21271;-80
2021/05/08 09:31:33;;;;;;;13.48;5.58;;;;;;;17.69;75.26;99506.16;1744266;80;21878;-80
2021/05/08 09:34:38;;;;;;;15.15;7.25;;;;;;;17.78;75.86;99491.42;1783872;80;21279;-80
2021/05/08 09:37:45;;;;;;;13.58;5.78;;;;;;;17.84;75.98;99480.79;1783025;80;22176;-80
2021/05/08 09:40:53;;;;;;;11.08;5.00;;;;;;;17.87;75.89;99460.92;1783748;80;21318;-80
2021/05/08 09:43:58;;;;;;;14.93;4.20;;;;;;;17.89;75.12;99457.38;1784946;80;21341;-80
2021/05/08 09:47:06;;;;;;;11.18;4.33;;;;;;;17.81;74.21;99452.23;1744888;82;21334;-80
2021/05/08 09:50:12;;;;;;;17.52;4.47;;;;;;;17.72;74.28;99460.56;1744691;82;22407;-80
2021/05/08 09:53:19;;;;;;;10.68;4.92;;;;;;;17.68;74.37;99448.31;1746109;82;21772;-80
2021/05/08 09:56:49;;;;;;;10.20;5.40;;;;;;;17.59;74.46;99445.91;1746040;82;21819;-80
2021/05/08 09:59:57;;;;;;;17.77;6.65;;;;;;;17.51;74.83;99451.84;1746141;82;21307;-80
2021/05/08 10:03:21;;;;;;;13.22;5.22;;;;;;;17.48;75.36;99446.78;1745212;82;21330;-80
2021/05/08 10:06:28;;;;;;;11.75;6.47;;;;;;;17.48;75.53;99442.63;1746107;82;21219;-80
2021/05/08 10:09:34;;;;;;;19.50;7.55;;;;;;;17.55;75.65;99439.73;1746195;82;21719;-80
2021/05/08 10:12:41;;;;;;;11.25;6.15;;;;;;;17.63;76.20;99453.19;1744609;82;21168;-80
2021/05/08 10:15:48;;;;;;;11.40;6.00;;;;;;;17.72;76.14;99444.81;1745197;82;21972;-80
2021/05/08 10:18:54;;;;;;;11.90;6.28;;;;;;;17.79;75.61;99471.00;1746742;82;21173;-80
2021/05/08 10:21:59;;;;;;;8.20;4.62;;;;;;;17.79;75.46;99471.00;1746038;82;21866;-80
2021/05/08 10:25:06;;;;;;;16.93;5.67;;;;;;;17.83;76.07;99474.94;1744617;82;21750;-80
2021/05/08 10:28:13;;;;;;;13.40;5.50;;;;;;;17.86;76.32;99482.76;1687323;82;21803;-80
2021/05/08 10:31:19;;;;;;;10.40;5.00;;;;;;;17.85;76.73;99487.45;1745965;82;21200;-80
2021/05/08 10:34:24;;;;;;;10.43;4.45;;;;;;;17.84;77.10;99493.23;1746031;82;21326;-80
2021/05/08 10:37:30;;;;;;;12.73;5.75;;;;;;;17.80;77.05;99489.27;1722632;82;21220;-79
2021/05/08 10:40:36;;;;;;;16.15;5.17;;;;;;;17.73;77.26;99495.43;1745989;82;21291;-80
2021/05/08 10:43:55;;;;;;;15.05;5.83;;;;;;;17.61;77.50;99491.31;1745997;82;21339;-80
2021/05/08 10:47:02;;;;;;;9.65;4.90;;;;;;;17.53;78.10;99475.92;1740864;81;21856;-80
2021/05/08 10:50:48;;;;;;;12.18;5.83;;;;;;;17.44;78.67;99465.47;1737868;82;21346;-80
2021/05/08 10:53:54;;;;;;;13.13;5.33;;;;;;;17.38;79.41;99464.52;1738022;82;21871;-80
2021/05/08 10:57:02;;;;;;;16.37;6.87;;;;;;;17.38;80.23;99465.91;1736385;82;21220;-80
2021/05/08 11:00:20;;;;;;;16.85;6.80;;;;;;;17.39;80.70;99470.34;1697116;82;21635;-80
2021/05/08 11:03:33;;;;;;;15.10;5.60;;;;;;;17.39;80.79;99450.99;1737518;82;21390;-80
2021/05/08 11:06:38;;;;;;;16.62;7.60;;;;;;;17.36;80.97;99422.45;1736879;82;21590;-80
2021/05/08 11:09:44;;;;;;;15.13;7.15;;;;;;;17.18;81.16;99419.84;1737830;82;21303;-80
2021/05/08 11:13:21;;;;;;;13.55;6.37;;;;;;;17.06;81.77;99420.67;1738149;82;21312;-80
2021/05/08 11:16:30;;;;;;;12.68;6.37;;;;;;;16.98;82.17;99405.83;1737117;82;21899;-80
2021/05/08 11:19:36;;;;;;;15.03;6.57;;;;;;;16.90;82.62;99403.98;1738493;82;21370;-80
2021/05/08 11:22:41;;;;;;;14.38;7.05;;;;;;;16.84;83.22;99396.96;1737831;82;21300;-80
2021/05/08 11:25:49;;;;;;;12.98;7.72;;;;;;;16.89;84.00;99404.53;1737520;82;21319;-80
2021/05/08 11:29:19;;;;;;;14.18;8.83;;;;;;;16.94;84.30;99407.41;1737795;82;22542;-80
2021/05/08 11:32:27;;;;;;;12.73;7.35;;;;;;;17.01;84.75;99397.61;1737802;82;21312;-80
2021/05/08 11:35:34;;;;;;;13.10;6.95;;;;;;;17.15;85.15;99377.48;1736573;82;22009;-80
2021/05/08 11:38:39;;;;;;;14.03;6.70;;;;;;;17.23;85.01;99357.23;1736601;82;21304;-80
2021/05/08 11:41:46;;;;;;;14.65;6.92;;;;;;;17.35;84.48;99354.44;1738120;82;21185;-80
2021/05/08 11:44:54;;;;;;;14.23;6.60;;;;;;;17.41;83.82;99349.84;1737906;82;21197;-80
2021/05/08 11:47:59;;;;;;;11.48;7.15;;;;;;;17.42;83.54;99359.84;1738542;81;21856;-80
2021/05/08 11:51:04;;;;;;;17.10;6.42;;;;;;;17.44;83.47;99365.41;1737764;82;21198;-80
2021/05/08 11:54:17;;;;;;;11.45;5.95;;;;;;;17.47;83.53;99352.50;1737643;82;21744;-80
2021/05/08 11:57:31;;;;;;;10.90;6.70;;;;;;;17.45;83.58;99355.19;1736640;82;21350;-80
2021/05/08 12:00:39;;;;;;;10.10;5.90;;;;;;;17.40;83.88;99343.48;1738282;82;21196;-80
2021/05/08 12:03:45;;;;;;;17.95;6.00;;;;;;;17.37;84.12;99331.56;1738015;82;21319;-79
2021/05/08 12:06:51;;;;;;;13.20;5.90;;;;;;;17.37;84.32;99329.63;1737437;82;21921;-79
2021/05/08 12:09:56;;;;;;;12.63;7.10;;;;;;;17.45;84.62;99336.68;1738684;82;21276;-80
2021/05/08 12:13:03;;;;;;;11.53;6.03;;;;;;;17.53;84.53;99340.45;1737856;82;21189;-79
2021/05/08 12:16:08;;;;;;;15.85;5.85;;;;;;;17.60;84.13;99329.27;1737900;82;21342;-79
2021/05/08 12:19:14;;;;;;;11.45;5.70;;;;;;;17.66;83.43;99336.57;1737592;82;21232;-80
2021/05/08 12:22:22;;;;;;;14.18;5.72;;;;;;;17.68;82.62;99334.93;1737272;82;21858;-80
2021/05/08 12:25:31;;;;;;;10.38;5.25;;;;;;;17.63;82.25;99329.59;1738405;82;21307;-80
2021/05/08 12:28:37;;;;;;;11.68;5.45;;;;;;;17.58;81.57;99335.02;1738422;82;21371;-80
2021/05/08 12:31:44;;;;;;;15.60;5.08;;;;;;;17.55;81.08;99335.53;1737977;82;21197;-80
2021/05/08 12:34:51;;;;;;;12.63;5.17;;;;;;;17.50;80.72;99334.05;1737661;82;21772;-80
2021/05/08 12:37:56;;;;;;;9.90;4.67;;;;;;;17.47;80.43;99341.98;1671253;82;21375;-80
2021/05/08 12:41:01;;;;;;;11.48;5.83;;;;;;;17.41;80.59;99345.70;1737897;82;21236;-80
2021/05/08 12:44:17;;;;;;;12.07;5.60;;;;;;;17.32;80.91;99353.02;1737873;82;21309;-80
2021/05/08 12:47:24;;;;;;;15.18;5.60;;;;;;;17.26;81.26;99361.42;1737305;82;21839;-80
2021/05/08 12:50:38;;;;;;;12.03;5.40;;;;;;;17.19;81.79;99361.56;1778800;80;21334;-80
2021/05/08 12:53:44;;;;;;;8.93;5.05;;;;;;;17.16;82.36;99368.95;1758600;80;21291;-79
2021/05/08 12:56:50;;;;;;;13.70;5.75;;;;;;;17.17;82.75;99369.23;1779630;80;21279;-80
2021/05/08 13:00:13;;;;;;;13.83;5.30;;;;;;;17.18;83.27;99376.47;1779768;80;21945;-80
2021/05/08 13:03:40;;;;;;;11.95;5.50;;;;;;;17.19;83.49;99367.64;1779823;80;21291;-79
2021/05/08 13:06:47;;;;;;;8.90;5.25;;;;;;;17.23;83.75;99372.98;1779750;80;21326;-79
2021/05/08 13:09:52;;;;;;;14.33;5.22;;;;;;;17.30;83.92;99369.53;1779400;80;21176;-79
2021/05/08 13:13:03;;;;;;;16.55;5.58;;;;;;;17.33;83.06;99368.51;1777888;80;21774;-80
2021/05/08 13:16:08;;;;;;;8.83;4.50;;;;;;;17.32;81.53;99357.70;1779924;80;21287;-79
2021/05/08 13:19:13;;;;;;;8.73;3.70;;;;;;;17.27;80.19;99354.84;1779755;80;21294;-79
2021/05/08 13:22:19;;;;;;;7.60;3.30;;;;;;;17.14;78.50;99364.22;1778186;80;21318;-79
2021/05/08 13:25:25;;;;;;;7.80;2.80;;;;;;;16.87;77.43;99376.30;1779771;80;21240;-79
2021/05/08 13:28:31;;;;;;;9.23;3.30;;;;;;;16.60;77.63;99384.99;1778692;80;21302;-79
2021/05/08 13:31:37;;;;;;;9.35;3.47;;;;;;;16.39;78.60;99391.63;1779874;80;21314;-79
2021/05/08 13:34:43;;;;;;;9.95;3.37;;;;;;;16.21;80.14;99385.64;1778299;80;21263;-79
2021/05/08 13:37:49;;;;;;;8.83;3.20;;;;;;;16.07;81.03;99395.48;1779504;80;21351;-79
2021/05/08 13:40:54;;;;;;;9.43;3.20;;;;;;;15.92;81.21;99390.94;1778354;80;21286;-79
2021/05/08 13:44:00;;;;;;;3.47;1.98;;;;;;;15.79;81.39;99388.36;1778338;80;21236;-79
2021/05/08 13:47:06;;;;;;;6.40;2.95;;;;;;;15.59;81.02;99396.31;1779729;80;21827;-80
2021/05/08 13:50:11;;;;;;;5.33;2.75;;;;;;;15.42;81.92;99405.43;1753773;80;21351;-79
2021/05/08 13:53:16;;;;;;;5.22;2.87;;;;;;;15.28;82.29;99400.60;1738810;82;21180;-79
2021/05/08 13:56:22;;;;;;;9.93;3.20;;;;;;;15.14;83.68;99394.93;1738927;82;21870;-79
2021/05/08 13:59:27;;;;;;;4.42;2.22;;;;;;;15.01;84.98;99399.53;1737864;82;21320;-78
2021/05/08 14:02:33;;;;;;;3.85;2.30;;;;;;;14.97;85.92;99405.17;1738051;82;21303;-79
2021/05/08 14:05:39;;;;;;;6.17;2.45;;;;;;;14.88;86.80;99407.91;1736494;82;21311;-79
2021/05/08 14:08:46;;;;;;;3.83;2.17;;;;;;;14.76;87.34;99409.70;1736540;82;21300;-79
2021/05/08 14:11:52;;;;;;;4.50;2.05;;;;;;;14.59;88.23;99413.56;1737655;82;21241;-79
2021/05/08 14:14:58;;;;;;;5.17;1.87;;;;;;;14.43;88.63;99423.16;1736395;82;21605;-79
2021/05/08 14:18:04;;;;;;;5.70;1.75;;;;;;;14.26;87.76;99441.29;1736428;82;21235;-79
2021/05/08 14:21:09;;;;;;;1.82;1.20;;;;;;;14.10;87.81;99439.88;1737903;82;21193;-80
2021/05/08 14:24:16;;;;;;;2.72;1.50;;;;;;;13.95;88.50;99452.55;1737871;82;21835;-80
2021/05/08 14:27:23;;;;;;;2.50;0.90;;;;;;;13.75;88.84;99449.06;1737918;82;21316;-80
2021/05/08 14:30:29;;;;;;;7.03;1.10;;;;;;;13.63;88.74;99456.28;1737912;82;21308;-81
2021/05/08 14:33:34;;;;;;;2.87;0.80;;;;;;;13.51;88.01;99452.84;1736555;82;21716;-81
2021/05/08 14:36:41;;;;;;;2.27;1.12;;;;;;;13.39;88.12;99456.47;1737377;82;22062;-81